Observation data for Clarendon on 10/14/2019      Previous  Date       Current Mesonet Observations  Soil Data  Daily Summary Page  Observations in Plain Language
KCES 140500Z 04003KT 12/05 A2995 RMK A01 T01190046  RH  062%=      5-min Rain = 0
KCES 140505Z 03001KT 11/04 A2995 RMK A01 T01070040  RH  065%=      5-min Rain = 0
KCES 140510Z 27001KT 09/04 A2995 RMK A01 T00920040  RH  072%=      5-min Rain = 0
KCES 140515Z 33002KT 09/04 A2995 RMK A01 T00880042  RH  074%=      5-min Rain = 0
KCES 140520Z 05004KT 09/05 A2995 RMK A01 T00900045  RH  075%=      5-min Rain = 0
KCES 140525Z 04002KT 10/04 A2995 RMK A01 T00960044  RH  071%=      5-min Rain = 0
KCES 140530Z 34002KT 09/04 A2995 RMK A01 T00920044  RH  073%=      5-min Rain = 0
KCES 140535Z 01002KT 09/04 A2995 RMK A01 T00930043  RH  073%=      5-min Rain = 0
KCES 140540Z 03003KT 10/04 A2995 RMK A01 T00980044  RH  071%=      5-min Rain = 0
KCES 140545Z 03003KT 11/04 A2994 RMK A01 T01080042  RH  065%=      5-min Rain = 0
KCES 140550Z 36002KT 09/04 A2994 RMK A01 T00890036  RH  071%=      5-min Rain = 0
KCES 140555Z 01002KT 09/04 A2994 RMK A01 T00850041  RH  075%=      5-min Rain = 0
KCES 140600Z 01001KT 09/04 A2994 RMK A01 T00870041  RH  074%=      5-min Rain = 0
KCES 140605Z 36001KT 09/04 A2994 RMK A01 T00890041  RH  073%=      5-min Rain = 0
KCES 140610Z 01002KT 09/04 A2994 RMK A01 T00920042  RH  072%=      5-min Rain = 0
KCES 140615Z 32002KT 09/04 A2995 RMK A01 T00850035  RH  072%=      5-min Rain = 0
KCES 140620Z 29002KT 08/04 A2995 RMK A01 T00800039  RH  077%=      5-min Rain = 0
KCES 140625Z 28005KT 09/04 A2995 RMK A01 T00850041  RH  075%=      5-min Rain = 0
KCES 140630Z 30004KT 09/04 A2995 RMK A01 T00880043  RH  075%=      5-min Rain = 0
KCES 140635Z 33004KT 09/04 A2995 RMK A01 T00930044  RH  073%=      5-min Rain = 0
KCES 140640Z 34002KT 10/04 A2995 RMK A01 T00950044  RH  072%=      5-min Rain = 0
KCES 140645Z 35002KT 10/05 A2995 RMK A01 T00960045  RH  072%=      5-min Rain = 0
KCES 140650Z 36000KT 10/05 A2995 RMK A01 T01010045  RH  069%=      5-min Rain = 0
KCES 140655Z 02001KT 10/04 A2995 RMK A01 T01040044  RH  068%=      5-min Rain = 0
KCES 140700Z 36001KT 10/04 A2995 RMK A01 T00950037  RH  068%=      5-min Rain = 0
KCES 140705Z 32001KT 09/04 A2995 RMK A01 T00860037  RH  072%=      5-min Rain = 0
KCES 140710Z 31001KT 08/04 A2995 RMK A01 T00780035  RH  075%=      5-min Rain = 0
KCES 140715Z 30001KT 08/04 A2995 RMK A01 T00770039  RH  078%=      5-min Rain = 0
KCES 140720Z 30001KT 08/04 A2995 RMK A01 T00810042  RH  078%=      5-min Rain = 0
KCES 140725Z 35001KT 08/04 A2995 RMK A01 T00830044  RH  078%=      5-min Rain = 0
KCES 140730Z 33002KT 09/04 A2995 RMK A01 T00850042  RH  076%=      5-min Rain = 0
KCES 140735Z 33001KT 09/04 A2995 RMK A01 T00870044  RH  076%=      5-min Rain = 0
KCES 140740Z 00001KT 09/05 A2995 RMK A01 T00940045  RH  073%=      5-min Rain = 0
KCES 140745Z 01001KT 10/04 A2995 RMK A01 T00960043  RH  071%=      5-min Rain = 0
KCES 140750Z 04000KT 09/04 A2995 RMK A01 T00890039  RH  072%=      5-min Rain = 0
KCES 140755Z 20001KT 08/04 A2995 RMK A01 T00800035  RH  074%=      5-min Rain = 0
KCES 140800Z 23001KT 07/04 A2995 RMK A01 T00700036  RH  080%=      5-min Rain = 0
KCES 140805Z 21002KT 07/04 A2995 RMK A01 T00740040  RH  081%=      5-min Rain = 0
KCES 140810Z 23001KT 08/04 A2995 RMK A01 T00770042  RH  080%=      5-min Rain = 0
KCES 140815Z 24001KT 08/04 A2995 RMK A01 T00770040  RH  079%=      5-min Rain = 0
KCES 140820Z 24001KT 07/03 A2995 RMK A01 T00700033  RH  079%=      5-min Rain = 0
KCES 140825Z 25000KT 07/04 A2995 RMK A01 T00690039  RH  083%=      5-min Rain = 0
KCES 140830Z 25000KT 07/04 A2994 RMK A01 T00730041  RH  082%=      5-min Rain = 0
KCES 140835Z 25000KT 07/04 A2994 RMK A01 T00730041  RH  082%=      5-min Rain = 0
KCES 140840Z 23002KT 07/04 A2994 RMK A01 T00690035  RH  081%=      5-min Rain = 0
KCES 140845Z 24002KT 06/03 A2994 RMK A01 T00640034  RH  083%=      5-min Rain = 0
KCES 140850Z 25001KT 06/03 A2994 RMK A01 T00590030  RH  083%=      5-min Rain = 0
KCES 140855Z 29002KT 06/03 A2994 RMK A01 T00600034  RH  085%=      5-min Rain = 0
KCES 140900Z 29001KT 06/04 A2994 RMK A01 T00640039  RH  086%=      5-min Rain = 0
KCES 140905Z 29000KT 07/04 A2994 RMK A01 T00680043  RH  086%=      5-min Rain = 0
KCES 140910Z 29000KT 07/04 A2993 RMK A01 T00730044  RH  084%=      5-min Rain = 0
KCES 140915Z 29001KT 07/03 A2993 RMK A01 T00650034  RH  082%=      5-min Rain = 0
KCES 140920Z 32003KT 06/03 A2993 RMK A01 T00620034  RH  084%=      5-min Rain = 0
KCES 140925Z 31003KT 06/04 A2993 RMK A01 T00630037  RH  085%=      5-min Rain = 0
KCES 140930Z 27001KT 07/04 A2993 RMK A01 T00690044  RH  086%=      5-min Rain = 0
KCES 140935Z 30001KT 08/05 A2993 RMK A01 T00770048  RH  084%=      5-min Rain = 0
KCES 140940Z 16000KT 09/05 A2993 RMK A01 T00860048  RH  079%=      5-min Rain = 0
KCES 140945Z 16001KT 09/05 A2993 RMK A01 T00890047  RH  077%=      5-min Rain = 0
KCES 140950Z 18001KT 09/05 A2993 RMK A01 T00860045  RH  077%=      5-min Rain = 0
KCES 140955Z 20001KT 09/05 A2993 RMK A01 T00850045  RH  078%=      5-min Rain = 0
KCES 141000Z 20002KT 08/04 A2993 RMK A01 T00800043  RH  079%=      5-min Rain = 0
KCES 141005Z 20002KT 08/04 A2993 RMK A01 T00760044  RH  082%=      5-min Rain = 0
KCES 141010Z 23002KT 08/04 A2993 RMK A01 T00750044  RH  082%=      5-min Rain = 0
KCES 141015Z 24002KT 07/04 A2993 RMK A01 T00700039  RH  082%=      5-min Rain = 0
KCES 141020Z 21002KT 07/05 A2994 RMK A01 T00720046  RH  085%=      5-min Rain = 0
KCES 141025Z 19002KT 08/05 A2994 RMK A01 T00840052  RH  082%=      5-min Rain = 0
KCES 141030Z 20001KT 09/05 A2994 RMK A01 T00870048  RH  078%=      5-min Rain = 0
KCES 141035Z 21001KT 09/05 A2994 RMK A01 T00850046  RH  078%=      5-min Rain = 0
KCES 141040Z 18001KT 08/04 A2994 RMK A01 T00820044  RH  079%=      5-min Rain = 0
KCES 141045Z 17001KT 08/05 A2994 RMK A01 T00800046  RH  081%=      5-min Rain = 0
KCES 141050Z 18001KT 08/04 A2993 RMK A01 T00770041  RH  080%=      5-min Rain = 0
KCES 141055Z 18001KT 08/04 A2993 RMK A01 T00750043  RH  082%=      5-min Rain = 0
KCES 141100Z 18002KT 08/05 A2993 RMK A01 T00810052  RH  084%=      5-min Rain = 0
KCES 141105Z 19003KT 09/05 A2994 RMK A01 T00890052  RH  079%=      5-min Rain = 0
KCES 141110Z 19002KT 09/05 A2993 RMK A01 T00890049  RH  078%=      5-min Rain = 0
KCES 141115Z 20002KT 09/05 A2993 RMK A01 T00850046  RH  078%=      5-min Rain = 0
KCES 141120Z 19001KT 08/04 A2994 RMK A01 T00790041  RH  079%=      5-min Rain = 0
KCES 141125Z 27001KT 08/04 A2994 RMK A01 T00770043  RH  081%=      5-min Rain = 0
KCES 141130Z 27001KT 08/04 A2993 RMK A01 T00760044  RH  082%=      5-min Rain = 0
KCES 141135Z 31001KT 08/04 A2994 RMK A01 T00750043  RH  082%=      5-min Rain = 0
KCES 141140Z 30001KT 07/04 A2994 RMK A01 T00720041  RH  082%=      5-min Rain = 0
KCES 141145Z 31002KT 07/04 A2994 RMK A01 T00730044  RH  083%=      5-min Rain = 0
KCES 141150Z 34003KT 08/05 A2994 RMK A01 T00760047  RH  084%=      5-min Rain = 0
KCES 141155Z 35004KT 08/05 A2994 RMK A01 T00830049  RH  081%=      5-min Rain = 0
KCES 141200Z 35003KT 08/05 A2995 RMK A01 T00840050  RH  081%=      5-min Rain = 0
KCES 141205Z 01004KT 09/05 A2995 RMK A01 T00890051  RH  079%=      5-min Rain = 0
KCES 141210Z 00003KT 09/05 A2995 RMK A01 T00910051  RH  078%=      5-min Rain = 0
KCES 141215Z 34002KT 09/05 A2995 RMK A01 T00910050  RH  077%=      5-min Rain = 0
KCES 141220Z 32002KT 09/05 A2995 RMK A01 T00900050  RH  078%=      5-min Rain = 0
KCES 141225Z 22001KT 09/05 A2995 RMK A01 T00890050  RH  078%=      5-min Rain = 0
KCES 141230Z 18003KT 09/05 A2995 RMK A01 T00910051  RH  078%=      5-min Rain = 0
KCES 141235Z 18002KT 09/05 A2995 RMK A01 T00900051  RH  078%=      5-min Rain = 0
KCES 141240Z 18002KT 09/05 A2995 RMK A01 T00870052  RH  080%=      5-min Rain = 0
KCES 141245Z 16002KT 09/05 A2995 RMK A01 T00860052  RH  081%=      5-min Rain = 0
KCES 141250Z 17002KT 08/05 A2995 RMK A01 T00830050  RH  081%=      5-min Rain = 0
KCES 141255Z 17001KT 08/05 A2995 RMK A01 T00820050  RH  082%=      5-min Rain = 0
KCES 141300Z 17001KT 08/05 A2995 RMK A01 T00810050  RH  083%=      5-min Rain = 0
KCES 141305Z 17000KT 08/05 A2995 RMK A01 T00800050  RH  083%=      5-min Rain = 0
KCES 141310Z 17000KT 08/05 A2995 RMK A01 T00810052  RH  084%=      5-min Rain = 0
KCES 141315Z 17001KT 08/06 A2995 RMK A01 T00820055  RH  085%=      5-min Rain = 0
KCES 141320Z 30001KT 08/06 A2995 RMK A01 T00840056  RH  084%=      5-min Rain = 0
KCES 141325Z 31002KT 08/06 A2995 RMK A01 T00840057  RH  085%=      5-min Rain = 0
KCES 141330Z 31001KT 09/06 A2995 RMK A01 T00860060  RH  086%=      5-min Rain = 0
KCES 141335Z 32002KT 09/06 A2995 RMK A01 T00900064  RH  086%=      5-min Rain = 0
KCES 141340Z 33003KT 09/07 A2995 RMK A01 T00920065  RH  085%=      5-min Rain = 0
KCES 141345Z 33002KT 09/07 A2995 RMK A01 T00930066  RH  085%=      5-min Rain = 0
KCES 141350Z 31002KT 10/07 A2996 RMK A01 T00960067  RH  084%=      5-min Rain = 0
KCES 141355Z 30002KT 10/07 A2996 RMK A01 T00990067  RH  083%=      5-min Rain = 0
KCES 141400Z 29001KT 10/07 A2995 RMK A01 T01020068  RH  082%=      5-min Rain = 0
KCES 141405Z 26000KT 11/07 A2996 RMK A01 T01050068  RH  080%=      5-min Rain = 0
KCES 141410Z 27000KT 11/07 A2996 RMK A01 T01090069  RH  078%=      5-min Rain = 0
KCES 141415Z 27000KT 11/07 A2996 RMK A01 T01110069  RH  077%=      5-min Rain = 0
KCES 141420Z 27000KT 11/07 A2996 RMK A01 T01130068  RH  076%=      5-min Rain = 0
KCES 141425Z 02001KT 12/07 A2996 RMK A01 T01150070  RH  076%=      5-min Rain = 0
KCES 141430Z 01000KT 12/07 A2996 RMK A01 T01190074  RH  076%=      5-min Rain = 0
KCES 141435Z 32000KT 13/08 A2996 RMK A01 T01250080  RH  076%=      5-min Rain = 0
KCES 141440Z 31000KT 13/09 A2996 RMK A01 T01330086  RH  075%=      5-min Rain = 0
KCES 141445Z 23000KT 14/09 A2996 RMK A01 T01440091  RH  072%=      5-min Rain = 0
KCES 141450Z 25000KT 15/09 A2996 RMK A01 T01540091  RH  068%=      5-min Rain = 0
KCES 141455Z 23001KT 17/09 A2996 RMK A01 T01650090  RH  063%=      5-min Rain = 0
KCES 141500Z 23001KT 17/08 A2996 RMK A01 T01730083  RH  057%=      5-min Rain = 0
KCES 141505Z 23002KT 18/08 A2996 RMK A01 T01820078  RH  052%=      5-min Rain = 0
KCES 141510Z 21003KT 19/08 A2996 RMK A01 T01930075  RH  048%=      5-min Rain = 0
KCES 141515Z 20003KT 20/07 A2996 RMK A01 T02040070  RH  043%=      5-min Rain = 0
KCES 141520Z 21003KT 22/06 A2996 RMK A01 T02160057  RH  036%=      5-min Rain = 0
KCES 141525Z 22004KT 22/05 A2996 RMK A01 T02210048  RH  033%=      5-min Rain = 0
KCES 141530Z 21005KT 23/05 A2996 RMK A01 T02250046  RH  032%=      5-min Rain = 0
KCES 141535Z 22004KT 23/04 A2996 RMK A01 T02280043  RH  031%=      5-min Rain = 0
KCES 141540Z 21005KT 23/05 A2996 RMK A01 T02310048  RH  031%=      5-min Rain = 0
KCES 141545Z 19005KT 23/06 A2996 RMK A01 T02310055  RH  033%=      5-min Rain = 0
KCES 141550Z 18005KT 23/06 A2996 RMK A01 T02310056  RH  033%=      5-min Rain = 0
KCES 141555Z 18006KT 23/06 A2997 RMK A01 T02330055  RH  032%=      5-min Rain = 0
KCES 141600Z 17006KT 23/05 A2996 RMK A01 T02320052  RH  032%=      5-min Rain = 0
KCES 141605Z 18006KT 23/05 A2996 RMK A01 T02300054  RH  033%=      5-min Rain = 0
KCES 141610Z 18006KT 23/06 A2996 RMK A01 T02310056  RH  033%=      5-min Rain = 0
KCES 141615Z 18006KT 23/06 A2996 RMK A01 T02340059  RH  033%=      5-min Rain = 0
KCES 141620Z 19006KT 23/06 A2996 RMK A01 T02330061  RH  034%=      5-min Rain = 0
KCES 141625Z 17006KT 23/06 A2996 RMK A01 T02340063  RH  034%=      5-min Rain = 0
KCES 141630Z 19006KT 24/06 A2996 RMK A01 T02380061  RH  033%=      5-min Rain = 0
KCES 141635Z 18006KT 24/06 A2995 RMK A01 T02390062  RH  033%=      5-min Rain = 0
KCES 141640Z 19006KT 24/06 A2995 RMK A01 T02380060  RH  032%=      5-min Rain = 0
KCES 141645Z 18006KT 24/06 A2995 RMK A01 T02400063  RH  033%=      5-min Rain = 0
KCES 141650Z 20006KT 24/06 A2995 RMK A01 T02410063  RH  032%=      5-min Rain = 0
KCES 141655Z 21007KT 24/06 A2995 RMK A01 T02430060  RH  031%=      5-min Rain = 0
KCES 141700Z 22007KT 24/06 A2995 RMK A01 T02420056  RH  031%=      5-min Rain = 0
KCES 141705Z 20007KT 24/06 A2995 RMK A01 T02440061  RH  031%=      5-min Rain = 0
KCES 141710Z 20007KT 25/06 A2995 RMK A01 T02450059  RH  031%=      5-min Rain = 0
KCES 141715Z 20007KT 25/06 A2995 RMK A01 T02450057  RH  030%=      5-min Rain = 0
KCES 141720Z 19007KT 25/06 A2995 RMK A01 T02490058  RH  030%=      5-min Rain = 0
KCES 141725Z 20007KT 25/06 A2994 RMK A01 T02530059  RH  030%=      5-min Rain = 0
KCES 141730Z 20006KT 25/06 A2994 RMK A01 T02540060  RH  030%=      5-min Rain = 0
KCES 141735Z 21007KT 26/06 A2994 RMK A01 T02560063  RH  030%=      5-min Rain = 0
KCES 141740Z 21007KT 26/06 A2994 RMK A01 T02590064  RH  029%=      5-min Rain = 0
KCES 141745Z 20008KT 26/06 A2994 RMK A01 T02590064  RH  029%=      5-min Rain = 0
KCES 141750Z 20008KT 26/07 A2994 RMK A01 T02630066  RH  029%=      5-min Rain = 0
KCES 141755Z 19008KT 26/07 A2994 RMK A01 T02630067  RH  030%=      5-min Rain = 0
KCES 141800Z 20008KT 27/07 A2993 RMK A01 T02660068  RH  029%=      5-min Rain = 0
KCES 141805Z 21009KT 27/07 A2993 RMK A01 T02720067  RH  028%=      5-min Rain = 0
KCES 141810Z 21009KT 27/07 A2993 RMK A01 T02730065  RH  027%=      5-min Rain = 0
KCES 141815Z 20008G13KT 28/06 A2993 RMK A01 T02750063  RH  027%=      5-min Rain = 0
KCES 141820Z 21008KT 28/06 A2992 RMK A01 T02760061  RH  026%=      5-min Rain = 0
KCES 141825Z 21009KT 28/06 A2992 RMK A01 T02770058  RH  025%=      5-min Rain = 0
KCES 141830Z 20009KT 28/06 A2992 RMK A01 T02770059  RH  026%=      5-min Rain = 0
KCES 141835Z 20009KT 28/06 A2992 RMK A01 T02790059  RH  025%=      5-min Rain = 0
KCES 141840Z 20009KT 28/06 A2992 RMK A01 T02810059  RH  025%=      5-min Rain = 0
KCES 141845Z 20010KT 28/06 A2991 RMK A01 T02840064  RH  026%=      5-min Rain = 0
KCES 141850Z 20010G15KT 28/06 A2991 RMK A01 T02810060  RH  025%=      5-min Rain = 0
KCES 141855Z 19008G13KT 28/06 A2991 RMK A01 T02810063  RH  026%=      5-min Rain = 0
KCES 141900Z 20009G14KT 28/06 A2991 RMK A01 T02820062  RH  025%=      5-min Rain = 0
KCES 141905Z 20009KT 28/06 A299 RMK A01 T02840062  RH  025%=      5-min Rain = 0
KCES 141910Z 18008KT 29/06 A299 RMK A01 T02860061  RH  025%=      5-min Rain = 0
KCES 141915Z 19009KT 29/06 A299 RMK A01 T02850058  RH  024%=      5-min Rain = 0
KCES 141920Z 18008KT 29/06 A2989 RMK A01 T02870055  RH  023%=      5-min Rain = 0
KCES 141925Z 18009G14KT 29/05 A2989 RMK A01 T02880054  RH  023%=      5-min Rain = 0
KCES 141930Z 18009G14KT 29/05 A2989 RMK A01 T02860053  RH  023%=      5-min Rain = 0
KCES 141935Z 19007KT 29/05 A2989 RMK A01 T02850054  RH  023%=      5-min Rain = 0
KCES 141940Z 17007G12KT 29/05 A2988 RMK A01 T02850052  RH  023%=      5-min Rain = 0
KCES 141945Z 18008G13KT 29/05 A2988 RMK A01 T02870053  RH  023%=      5-min Rain = 0
KCES 141950Z 18010KT 29/05 A2988 RMK A01 T02880051  RH  023%=      5-min Rain = 0
KCES 141955Z 18007G13KT 29/05 A2988 RMK A01 T02890052  RH  023%=      5-min Rain = 0
KCES 142000Z 19010KT 29/05 A2988 RMK A01 T02920054  RH  023%=      5-min Rain = 0
KCES 142005Z 19009KT 29/05 A2987 RMK A01 T02920052  RH  022%=      5-min Rain = 0
KCES 142010Z 20008KT 30/05 A2987 RMK A01 T02960052  RH  022%=      5-min Rain = 0
KCES 142015Z 21007KT 29/05 A2986 RMK A01 T02940049  RH  022%=      5-min Rain = 0
KCES 142020Z 19010KT 30/05 A2986 RMK A01 T02950049  RH  022%=      5-min Rain = 0
KCES 142025Z 19010KT 29/05 A2986 RMK A01 T02930050  RH  022%=      5-min Rain = 0
KCES 142030Z 20010G15KT 30/05 A2986 RMK A01 T02950053  RH  022%=      5-min Rain = 0
KCES 142035Z 19011KT 30/05 A2986 RMK A01 T02950050  RH  022%=      5-min Rain = 0
KCES 142040Z 19011KT 30/05 A2986 RMK A01 T02980049  RH  021%=      5-min Rain = 0
KCES 142045Z 17012KT 30/05 A2986 RMK A01 T02970048  RH  021%=      5-min Rain = 0
KCES 142050Z 18011G16KT 30/05 A2985 RMK A01 T02980046  RH  021%=      5-min Rain = 0
KCES 142055Z 17010KT 30/04 A2986 RMK A01 T03000043  RH  020%=      5-min Rain = 0
KCES 142100Z 18010G18KT 30/04 A2985 RMK A01 T02990041  RH  020%=      5-min Rain = 0
KCES 142105Z 19008KT 30/04 A2985 RMK A01 T03010040  RH  019%=      5-min Rain = 0
KCES 142110Z 17010G15KT 30/04 A2985 RMK A01 T03010040  RH  019%=      5-min Rain = 0
KCES 142115Z 18008KT 30/04 A2985 RMK A01 T02980039  RH  020%=      5-min Rain = 0
KCES 142120Z 18010KT 30/04 A2985 RMK A01 T03010041  RH  020%=      5-min Rain = 0
KCES 142125Z 15009KT 30/04 A2985 RMK A01 T03010039  RH  019%=      5-min Rain = 0
KCES 142130Z 18009KT 31/04 A2985 RMK A01 T03050042  RH  019%=      5-min Rain = 0
KCES 142135Z 17014G19KT 30/04 A2985 RMK A01 T03020037  RH  019%=      5-min Rain = 0
KCES 142140Z 19010KT 30/04 A2985 RMK A01 T03000037  RH  019%=      5-min Rain = 0
KCES 142145Z 17010G15KT 30/04 A2984 RMK A01 T03020039  RH  019%=      5-min Rain = 0
KCES 142150Z 18010KT 30/04 A2984 RMK A01 T03040040  RH  019%=      5-min Rain = 0
KCES 142155Z 17009G16KT 30/04 A2984 RMK A01 T03040039  RH  019%=      5-min Rain = 0
KCES 142200Z 20011KT 30/03 A2984 RMK A01 T03040029  RH  018%=      5-min Rain = 0
KCES 142205Z 21008KT 30/03 A2984 RMK A01 T03030031  RH  018%=      5-min Rain = 0
KCES 142210Z 20008G13KT 31/03 A2984 RMK A01 T03050030  RH  018%=      5-min Rain = 0
KCES 142215Z 22012KT 30/03 A2984 RMK A01 T03040025  RH  017%=      5-min Rain = 0
KCES 142220Z 22009G14KT 30/03 A2984 RMK A01 T03040026  RH  017%=      5-min Rain = 0
KCES 142225Z 21009KT 30/03 A2984 RMK A01 T03030031  RH  018%=      5-min Rain = 0
KCES 142230Z 24011G16KT 30/02 A2984 RMK A01 T03020018  RH  016%=      5-min Rain = 0
KCES 142235Z 24011G16KT 30/01 A2984 RMK A01 T03000013  RH  016%=      5-min Rain = 0
KCES 142240Z 23012KT 30/01 A2984 RMK A01 T02990009  RH  016%=      5-min Rain = 0
KCES 142245Z 23011KT 30/01 A2984 RMK A01 T02980012  RH  016%=      5-min Rain = 0
KCES 142250Z 23008KT 30/02 A2984 RMK A01 T02970019  RH  017%=      5-min Rain = 0
KCES 142255Z 23010KT 30/01 A2984 RMK A01 T02960014  RH  017%=      5-min Rain = 0
KCES 142300Z 22011KT 29/01 A2985 RMK A01 T02940009  RH  016%=      5-min Rain = 0
KCES 142305Z 22010KT 29/01 A2985 RMK A01 T02930010  RH  016%=      5-min Rain = 0
KCES 142310Z 23009KT 29/01 A2985 RMK A01 T02910011  RH  017%=      5-min Rain = 0
KCES 142315Z 22007KT 29/01 A2985 RMK A01 T02900012  RH  017%=      5-min Rain = 0
KCES 142320Z 22007KT 29/02 A2985 RMK A01 T02870017  RH  018%=      5-min Rain = 0
KCES 142325Z 23007KT 28/02 A2984 RMK A01 T02840021  RH  019%=      5-min Rain = 0
KCES 142330Z 22006KT 28/03 A2985 RMK A01 T02800027  RH  020%=      5-min Rain = 0
KCES 142335Z 22007KT 28/03 A2985 RMK A01 T02750032  RH  021%=      5-min Rain = 0
KCES 142340Z 21007KT 27/04 A2985 RMK A01 T02660038  RH  023%=      5-min Rain = 0
KCES 142345Z 20007KT 26/04 A2985 RMK A01 T02600044  RH  025%=      5-min Rain = 0
KCES 142350Z 20008KT 26/05 A2985 RMK A01 T02590053  RH  027%=      5-min Rain = 0
KCES 142355Z 20007KT 26/06 A2985 RMK A01 T02560058  RH  029%=      5-min Rain = 0
KCES 150000Z 20007KT 25/06 A2985 RMK A01 T02520061  RH  030%=      5-min Rain = 0
KCES 150005Z 19006KT 25/06 A2985 RMK A01 T02450063  RH  032%=      5-min Rain = 0
KCES 150010Z 19006KT 24/06 A2985 RMK A01 T02350063  RH  034%=      5-min Rain = 0
KCES 150015Z 19006KT 23/07 A2985 RMK A01 T02260065  RH  036%=      5-min Rain = 0
KCES 150020Z 18006KT 22/07 A2985 RMK A01 T02190067  RH  038%=      5-min Rain = 0
KCES 150025Z 18006KT 22/07 A2986 RMK A01 T02150068  RH  040%=      5-min Rain = 0
KCES 150030Z 19006KT 21/07 A2986 RMK A01 T02090068  RH  041%=      5-min Rain = 0
KCES 150035Z 19005KT 21/07 A2986 RMK A01 T02050069  RH  042%=      5-min Rain = 0
KCES 150040Z 18005KT 20/07 A2986 RMK A01 T02010070  RH  044%=      5-min Rain = 0
KCES 150045Z 18006KT 20/07 A2986 RMK A01 T01970071  RH  045%=      5-min Rain = 0
KCES 150050Z 18006KT 19/07 A2986 RMK A01 T01920072  RH  047%=      5-min Rain = 0
KCES 150055Z 18007KT 19/07 A2986 RMK A01 T01880072  RH  048%=      5-min Rain = 0
KCES 150100Z 18007KT 19/07 A2986 RMK A01 T01850073  RH  049%=      5-min Rain = 0
KCES 150105Z 18008KT 18/07 A2986 RMK A01 T01830072  RH  050%=      5-min Rain = 0
KCES 150110Z 18008KT 19/07 A2986 RMK A01 T01850071  RH  049%=      5-min Rain = 0
KCES 150115Z 18007KT 19/07 A2986 RMK A01 T01880071  RH  048%=      5-min Rain = 0
KCES 150120Z 17008KT 19/07 A2987 RMK A01 T01900071  RH  047%=      5-min Rain = 0
KCES 150125Z 18008KT 19/07 A2987 RMK A01 T01930071  RH  046%=      5-min Rain = 0
KCES 150130Z 18008KT 19/07 A2987 RMK A01 T01920071  RH  047%=      5-min Rain = 0
KCES 150135Z 18008KT 19/07 A2987 RMK A01 T01910072  RH  047%=      5-min Rain = 0
KCES 150140Z 18008KT 19/07 A2987 RMK A01 T01900073  RH  047%=      5-min Rain = 0
KCES 150145Z 18008KT 19/07 A2987 RMK A01 T01930073  RH  047%=      5-min Rain = 0
KCES 150150Z 18008KT 19/07 A2987 RMK A01 T01940074  RH  047%=      5-min Rain = 0
KCES 150155Z 18008KT 19/08 A2987 RMK A01 T01910075  RH  048%=      5-min Rain = 0
KCES 150200Z 18008KT 19/08 A2987 RMK A01 T01900075  RH  049%=      5-min Rain = 0
KCES 150205Z 18007KT 19/08 A2988 RMK A01 T01880075  RH  049%=      5-min Rain = 0
KCES 150210Z 18006KT 19/08 A2988 RMK A01 T01850075  RH  050%=      5-min Rain = 0
KCES 150215Z 18006KT 18/08 A2988 RMK A01 T01840076  RH  050%=      5-min Rain = 0
KCES 150220Z 18006KT 18/08 A2988 RMK A01 T01820077  RH  052%=      5-min Rain = 0
KCES 150225Z 18005KT 18/08 A2988 RMK A01 T01780078  RH  053%=      5-min Rain = 0
KCES 150230Z 18005KT 18/08 A2988 RMK A01 T01760079  RH  054%=      5-min Rain = 0
KCES 150235Z 18005KT 17/08 A2988 RMK A01 T01740079  RH  055%=      5-min Rain = 0
KCES 150240Z 19005KT 17/08 A2988 RMK A01 T01690080  RH  058%=      5-min Rain = 0
KCES 150245Z 18006KT 17/08 A2988 RMK A01 T01650081  RH  059%=      5-min Rain = 0
KCES 150250Z 18007KT 17/08 A2988 RMK A01 T01670082  RH  059%=      5-min Rain = 0
KCES 150255Z 18007KT 17/08 A2989 RMK A01 T01700082  RH  058%=      5-min Rain = 0
KCES 150300Z 18006KT 17/08 A2989 RMK A01 T01690082  RH  058%=      5-min Rain = 0
KCES 150305Z 18005KT 17/08 A2989 RMK A01 T01670081  RH  059%=      5-min Rain = 0
KCES 150310Z 18005KT 16/08 A2989 RMK A01 T01630082  RH  060%=      5-min Rain = 0
KCES 150315Z 18006KT 16/08 A2989 RMK A01 T01580082  RH  062%=      5-min Rain = 0
KCES 150320Z 17007KT 16/08 A2989 RMK A01 T01580082  RH  062%=      5-min Rain = 0
KCES 150325Z 17008KT 17/08 A2989 RMK A01 T01670083  RH  059%=      5-min Rain = 0
KCES 150330Z 17008KT 18/08 A2989 RMK A01 T01780083  RH  055%=      5-min Rain = 0
KCES 150335Z 17009KT 19/08 A2989 RMK A01 T01870082  RH  052%=      5-min Rain = 0
KCES 150340Z 17008KT 19/08 A2989 RMK A01 T01900082  RH  051%=      5-min Rain = 0
KCES 150345Z 17008KT 19/08 A2989 RMK A01 T01890082  RH  051%=      5-min Rain = 0
KCES 150350Z 17008KT 19/08 A2989 RMK A01 T01880083  RH  052%=      5-min Rain = 0
KCES 150355Z 18008KT 19/08 A2989 RMK A01 T01870083  RH  052%=      5-min Rain = 0
KCES 150400Z 17008KT 19/08 A2989 RMK A01 T01880083  RH  052%=      5-min Rain = 0
KCES 150405Z 17009KT 19/08 A2989 RMK A01 T01890084  RH  052%=      5-min Rain = 0
KCES 150410Z 17009KT 19/08 A2989 RMK A01 T01900084  RH  052%=      5-min Rain = 0
KCES 150415Z 18009KT 19/08 A2989 RMK A01 T01890084  RH  052%=      5-min Rain = 0
KCES 150420Z 18009KT 19/09 A2989 RMK A01 T01890085  RH  053%=      5-min Rain = 0
KCES 150425Z 18009KT 19/09 A2989 RMK A01 T01880087  RH  053%=      5-min Rain = 0
KCES 150430Z 18009KT 19/09 A2989 RMK A01 T01880088  RH  054%=      5-min Rain = 0
KCES 150435Z 18009KT 19/09 A2989 RMK A01 T01880090  RH  055%=      5-min Rain = 0
KCES 150440Z 18010KT 19/09 A2989 RMK A01 T01870092  RH  056%=      5-min Rain = 0
KCES 150445Z 19010KT 19/10 A2989 RMK A01 T01880095  RH  056%=      5-min Rain = 0
KCES 150450Z 19010KT 19/10 A2989 RMK A01 T01850096  RH  058%=      5-min Rain = 0
KCES 150455Z 19010KT 18/10 A2989 RMK A01 T01830098  RH  060%=      5-min Rain = 0

Page generated in 0.0161 seconds.